Time;durP1;ratioP1;P1;durP2;ratioP2;P2;SDS_P1;SDS_P2;PMS_P1;PMS_P2;Temp;Humidity;BMP_temperature;BMP_pressure;BME280_temperature;BME280_humidity;BME280_pressure;Samples;Min_cycle;Max_cycle;Signal;HPM_P1;HPM_P2
2022/10/03 00:01:40;;;;;;;1.88;0.95;;;;;;;;;;4490105;28;20383;-57
2022/10/03 00:04:11;;;;;;;1.63;1.00;;;;;;;;;;4470112;28;20101;-57
2022/10/03 00:06:56;;;;;;;2.08;1.10;;;;;;;;;;4493797;28;20653;-57
2022/10/03 00:09:19;;;;;;;1.48;0.80;;;;;;;;;;4438303;28;20047;-57
2022/10/03 00:11:46;;;;;;;2.45;1.00;;;;;;;;;;4479272;28;20578;-57
2022/10/03 00:14:17;;;;;;;1.38;0.93;;;;;;;;;;4493456;28;20061;-57
2022/10/03 00:16:46;;;;;;;2.00;0.95;;;;;;;;;;4477406;28;20078;-57
2022/10/03 00:19:16;;;;;;;2.90;1.02;;;;;;;;;;4475622;28;20203;-58
2022/10/03 00:21:31;;;;;;;1.67;0.90;;;;;;;;;;4481013;28;20026;-57
2022/10/03 00:24:10;;;;;;;1.90;1.10;;;;;;;;;;4476622;28;20034;-57
2022/10/03 00:26:32;;;;;;;3.17;0.80;;;;;;;;;;4493564;28;20150;-59
2022/10/03 00:28:59;;;;;;;1.52;0.90;;;;;;;;;;4484920;28;20039;-57
2022/10/03 00:31:23;;;;;;;1.73;0.95;;;;;;;;;;4490923;28;20181;-57
2022/10/03 00:34:05;;;;;;;2.20;1.17;;;;;;;;;;4480018;28;20646;-57
2022/10/03 00:36:36;;;;;;;2.65;1.00;;;;;;;;;;4480820;28;20555;-57
2022/10/03 00:39:07;;;;;;;2.92;1.10;;;;;;;;;;4476233;28;20034;-57
2022/10/03 00:41:34;;;;;;;2.15;1.00;;;;;;;;;;4480032;28;20340;-57
2022/10/03 00:44:05;;;;;;;2.72;0.95;;;;;;;;;;4465046;28;20039;-57
2022/10/03 00:46:46;;;;;;;2.25;0.90;;;;;;;;;;4476511;28;20150;-57
2022/10/03 00:49:05;;;;;;;2.42;1.00;;;;;;;;;;4493584;28;20163;-57
2022/10/03 00:51:41;;;;;;;1.48;0.90;;;;;;;;;;4492135;28;20089;-57
2022/10/03 00:54:14;;;;;;;2.55;0.98;;;;;;;;;;4492836;28;20034;-57
2022/10/03 00:56:35;;;;;;;3.58;1.20;;;;;;;;;;4492496;28;20042;-57
2022/10/03 00:59:10;;;;;;;2.08;1.00;;;;;;;;;;4481176;28;21376;-58
2022/10/03 01:01:23;;;;;;;3.40;1.15;;;;;;;;;;4491414;28;20034;-57
2022/10/03 01:03:52;;;;;;;1.73;0.90;;;;;;;;;;4493005;28;20141;-57
2022/10/03 01:06:13;;;;;;;2.40;1.20;;;;;;;;;;4479544;28;20154;-57
2022/10/03 01:09:08;;;;;;;3.13;1.30;;;;;;;;;;4484235;28;20096;-57
2022/10/03 01:11:36;;;;;;;2.10;1.20;;;;;;;;;;4484589;28;20093;-57
2022/10/03 01:14:12;;;;;;;1.65;0.95;;;;;;;;;;4478668;28;20039;-57
2022/10/03 01:16:47;;;;;;;2.97;1.05;;;;;;;;;;4491326;28;20811;-57
2022/10/03 01:19:16;;;;;;;2.28;0.95;;;;;;;;;;4492712;28;20030;-57
2022/10/03 01:21:47;;;;;;;2.13;1.00;;;;;;;;;;4493386;28;20041;-57
2022/10/03 01:24:32;;;;;;;3.10;0.90;;;;;;;;;;4481118;28;20035;-57
2022/10/03 01:26:54;;;;;;;2.03;1.02;;;;;;;;;;4480339;28;20046;-57
2022/10/03 01:31:38;;;;;;;4.78;1.20;;;;;;;;;;4493234;28;20290;-57
2022/10/03 01:33:52;;;;;;;3.38;1.35;;;;;;;;;;4491198;28;20035;-57
2022/10/03 01:36:13;;;;;;;3.80;1.25;;;;;;;;;;4492141;28;20034;-57
2022/10/03 01:38:32;;;;;;;2.45;1.20;;;;;;;;;;4484326;28;20031;-57
2022/10/03 01:40:49;;;;;;;3.60;1.20;;;;;;;;;;4475105;28;20066;-57
2022/10/03 01:43:21;;;;;;;2.42;1.20;;;;;;;;;;4492335;28;20611;-57
2022/10/03 01:45:54;;;;;;;2.28;0.98;;;;;;;;;;4477987;28;20041;-57
2022/10/03 01:48:11;;;;;;;1.98;1.10;;;;;;;;;;4492983;28;20078;-57
2022/10/03 01:50:36;;;;;;;2.15;1.20;;;;;;;;;;4474908;28;20043;-57
2022/10/03 01:53:02;;;;;;;2.40;1.20;;;;;;;;;;4476095;28;20041;-57
2022/10/03 01:55:40;;;;;;;2.47;1.20;;;;;;;;;;4492353;28;20033;-58
2022/10/03 01:58:04;;;;;;;2.45;1.00;;;;;;;;;;4476227;28;20086;-57
2022/10/03 02:00:17;;;;;;;2.55;1.10;;;;;;;;;;4482037;28;20038;-57
2022/10/03 02:03:09;;;;;;;2.20;1.25;;;;;;;;;;4483500;28;20120;-57
2022/10/03 02:05:44;;;;;;;3.58;1.40;;;;;;;;;;4491939;28;20137;-57
2022/10/03 02:08:21;;;;;;;2.60;1.20;;;;;;;;;;4491202;28;20120;-57
2022/10/03 02:10:48;;;;;;;2.38;1.10;;;;;;;;;;4492310;28;20050;-57
2022/10/03 02:13:09;;;;;;;2.67;1.00;;;;;;;;;;4491596;28;20586;-57
2022/10/03 02:15:20;;;;;;;2.40;1.15;;;;;;;;;;4478278;28;20086;-58
2022/10/03 02:17:51;;;;;;;2.53;1.25;;;;;;;;;;4474240;28;20097;-57
2022/10/03 02:20:18;;;;;;;2.92;1.23;;;;;;;;;;4476702;28;20040;-57
2022/10/03 02:22:34;;;;;;;2.67;1.23;;;;;;;;;;4480009;28;20838;-57
2022/10/03 02:24:50;;;;;;;;;;;;;;;;;;4482814;28;20109;-58
2022/10/03 02:27:20;;;;;;;1.92;1.00;;;;;;;;;;4490732;28;19924;-57
2022/10/03 02:29:38;;;;;;;2.15;1.02;;;;;;;;;;4491022;28;20108;-57
2022/10/03 02:32:03;;;;;;;3.00;1.23;;;;;;;;;;4478198;28;20113;-57
2022/10/03 02:34:39;;;;;;;2.03;1.27;;;;;;;;;;4492195;28;20200;-58
2022/10/03 02:37:14;;;;;;;4.03;1.30;;;;;;;;;;4479039;28;20046;-57
2022/10/03 02:39:37;;;;;;;3.15;1.20;;;;;;;;;;4490614;28;20113;-57
2022/10/03 02:42:25;;;;;;;3.35;1.20;;;;;;;;;;4491684;28;20910;-57
2022/10/03 02:44:57;;;;;;;2.83;1.20;;;;;;;;;;4492563;28;20133;-57
2022/10/03 02:47:41;;;;;;;2.67;1.15;;;;;;;;;;4476248;28;20050;-57
2022/10/03 02:50:04;;;;;;;2.33;1.30;;;;;;;;;;4491719;28;20046;-57
2022/10/03 02:52:34;;;;;;;1.92;1.10;;;;;;;;;;4491695;28;20125;-58
2022/10/03 02:54:53;;;;;;;1.73;1.10;;;;;;;;;;4484701;28;20048;-58
2022/10/03 02:57:16;;;;;;;2.47;1.20;;;;;;;;;;4459086;28;20614;-57
2022/10/03 02:59:49;;;;;;;3.10;1.30;;;;;;;;;;4490259;28;20026;-58
2022/10/03 03:02:06;;;;;;;3.20;1.30;;;;;;;;;;4492520;28;20038;-57
2022/10/03 03:04:55;;;;;;;2.10;1.10;;;;;;;;;;4490170;28;20121;-58
2022/10/03 03:07:29;;;;;;;2.83;1.13;;;;;;;;;;4460778;28;20050;-58
2022/10/03 03:09:57;;;;;;;2.45;1.00;;;;;;;;;;4476932;28;20049;-58
2022/10/03 03:12:19;;;;;;;2.58;1.20;;;;;;;;;;4476638;28;20105;-57
2022/10/03 03:15:07;;;;;;;1.92;1.17;;;;;;;;;;4491104;28;20034;-57
2022/10/03 03:17:38;;;;;;;2.72;1.33;;;;;;;;;;4489707;28;20457;-57
2022/10/03 03:20:17;;;;;;;2.65;1.30;;;;;;;;;;4476019;28;20678;-57
2022/10/03 03:22:44;;;;;;;3.25;1.40;;;;;;;;;;4478342;28;20116;-57
2022/10/03 03:25:00;;;;;;;3.00;1.10;;;;;;;;;;4474896;28;20188;-57
2022/10/03 03:27:21;;;;;;;2.05;1.13;;;;;;;;;;4475628;28;20089;-57
2022/10/03 03:29:54;;;;;;;2.28;1.40;;;;;;;;;;4477832;28;20082;-57
2022/10/03 03:32:26;;;;;;;2.80;1.42;;;;;;;;;;4479517;28;20092;-57
2022/10/03 03:34:48;;;;;;;2.78;1.40;;;;;;;;;;4490945;28;20062;-57
2022/10/03 03:37:05;;;;;;;2.55;1.27;;;;;;;;;;4489677;28;21046;-58
2022/10/03 03:39:45;;;;;;;2.92;1.40;;;;;;;;;;4479142;28;20140;-57
2022/10/03 03:42:00;;;;;;;2.03;1.15;;;;;;;;;;4482362;28;20041;-57
2022/10/03 03:44:26;;;;;;;2.22;1.17;;;;;;;;;;4478402;28;20599;-57
2022/10/03 03:46:56;;;;;;;2.80;1.20;;;;;;;;;;4493314;28;20037;-58
2022/10/03 03:49:22;;;;;;;2.22;1.20;;;;;;;;;;4494278;28;20034;-57
2022/10/03 03:51:37;;;;;;;2.63;1.30;;;;;;;;;;4494436;28;20038;-57
2022/10/03 03:54:06;;;;;;;3.20;1.50;;;;;;;;;;4493187;28;20034;-57
2022/10/03 03:56:27;;;;;;;2.38;1.48;;;;;;;;;;4469537;28;20149;-57
2022/10/03 03:59:01;;;;;;;2.33;1.38;;;;;;;;;;4475012;28;20046;-57
2022/10/03 04:01:18;;;;;;;2.42;1.40;;;;;;;;;;4478324;28;20647;-57
2022/10/03 04:03:53;;;;;;;2.78;1.30;;;;;;;;;;4494417;28;20042;-58
2022/10/03 04:06:34;;;;;;;2.15;1.17;;;;;;;;;;4493701;28;20046;-57
2022/10/03 04:09:02;;;;;;;2.80;1.10;;;;;;;;;;4476051;28;20031;-57
2022/10/03 04:11:22;;;;;;;2.75;1.30;;;;;;;;;;4478910;28;20101;-57
2022/10/03 04:13:51;;;;;;;2.38;1.30;;;;;;;;;;4477792;28;20880;-57
2022/10/03 04:16:04;;;;;;;3.83;1.40;;;;;;;;;;4493780;28;20069;-57
2022/10/03 04:21:31;;;;;;;2.65;1.40;;;;;;;;;;4471091;28;20065;-57
2022/10/03 04:24:00;;;;;;;2.95;1.65;;;;;;;;;;4492614;28;20040;-57
2022/10/03 04:26:27;;;;;;;2.42;1.38;;;;;;;;;;4493420;28;20053;-57
2022/10/03 04:29:04;;;;;;;2.60;1.40;;;;;;;;;;4460011;28;20078;-57
2022/10/03 04:31:23;;;;;;;3.28;1.40;;;;;;;;;;4494509;28;20070;-57
2022/10/03 04:34:11;;;;;;;3.22;1.30;;;;;;;;;;4493575;28;20035;-57
2022/10/03 04:36:45;;;;;;;2.45;1.38;;;;;;;;;;4493187;28;20034;-57
2022/10/03 04:39:18;;;;;;;2.97;1.40;;;;;;;;;;4461543;28;20039;-57
2022/10/03 04:41:44;;;;;;;2.78;1.50;;;;;;;;;;4474678;28;20114;-57
2022/10/03 04:44:10;;;;;;;3.13;1.48;;;;;;;;;;4476883;28;20126;-57
2022/10/03 04:46:51;;;;;;;2.97;1.42;;;;;;;;;;4475950;28;20102;-57
2022/10/03 04:49:17;;;;;;;3.10;1.50;;;;;;;;;;4480560;28;20129;-57
2022/10/03 04:51:51;;;;;;;3.47;1.70;;;;;;;;;;4492208;28;20037;-57
2022/10/03 04:54:23;;;;;;;3.38;1.60;;;;;;;;;;4493252;28;20069;-57
2022/10/03 04:56:41;;;;;;;3.35;1.58;;;;;;;;;;4490269;28;20081;-57
2022/10/03 04:58:55;;;;;;;4.90;2.90;;;;;;;;;;4480290;28;20039;-57
2022/10/03 05:01:25;;;;;;;5.50;3.45;;;;;;;;;;4476046;28;21357;-58
2022/10/03 05:03:48;;;;;;;5.60;3.75;;;;;;;;;;4492597;28;20164;-57
2022/10/03 05:06:05;;;;;;;5.78;2.90;;;;;;;;;;4492893;28;20034;-57
2022/10/03 05:08:15;;;;;;;;;;;;;;;;;;4477971;28;20576;-57
2022/10/03 05:10:43;;;;;;;2.90;1.55;;;;;;;;;;4477185;28;19918;-58
2022/10/03 05:13:31;;;;;;;2.58;1.60;;;;;;;;;;4480529;28;20043;-57
2022/10/03 05:16:12;;;;;;;2.97;1.98;;;;;;;;;;4491806;28;20038;-58
2022/10/03 05:18:47;;;;;;;3.92;2.40;;;;;;;;;;4490320;28;20077;-57
2022/10/03 05:21:01;;;;;;;4.05;2.90;;;;;;;;;;4492285;28;20770;-57
2022/10/03 05:24:01;;;;;;;3.50;2.20;;;;;;;;;;4491909;28;20737;-57
2022/10/03 05:26:33;;;;;;;3.22;1.80;;;;;;;;;;4487327;28;20793;-57
2022/10/03 05:28:57;;;;;;;3.05;1.67;;;;;;;;;;4492244;28;20066;-58
2022/10/03 05:31:32;;;;;;;3.22;1.50;;;;;;;;;;4484122;28;20035;-57
2022/10/03 05:33:53;;;;;;;3.83;1.73;;;;;;;;;;4491814;28;20066;-57
2022/10/03 05:36:12;;;;;;;2.63;1.50;;;;;;;;;;4476747;28;20150;-57
2022/10/03 05:39:05;;;;;;;2.72;1.35;;;;;;;;;;4483301;28;20093;-57
2022/10/03 05:41:15;;;;;;;3.53;2.00;;;;;;;;;;4487530;28;20046;-57
2022/10/03 05:43:45;;;;;;;2.90;1.60;;;;;;;;;;4490444;28;20026;-58
2022/10/03 05:46:20;;;;;;;5.07;1.70;;;;;;;;;;4491619;28;20068;-58
2022/10/03 05:48:33;;;;;;;2.80;1.67;;;;;;;;;;4477047;28;20043;-57
2022/10/03 05:51:01;;;;;;;2.75;1.45;;;;;;;;;;4478012;28;20129;-58
2022/10/03 05:53:24;;;;;;;3.35;1.75;;;;;;;;;;4491194;28;20042;-57
2022/10/03 05:56:06;;;;;;;3.85;1.80;;;;;;;;;;4490920;28;20039;-57
2022/10/03 05:58:54;;;;;;;3.22;1.70;;;;;;;;;;4473392;28;20814;-57
2022/10/03 06:01:13;;;;;;;3.00;1.58;;;;;;;;;;4430953;28;20067;-57
2022/10/03 06:03:55;;;;;;;2.33;1.48;;;;;;;;;;4476403;28;20056;-57
2022/10/03 06:06:19;;;;;;;2.80;1.55;;;;;;;;;;4469823;28;20579;-57
2022/10/03 06:08:47;;;;;;;3.42;1.67;;;;;;;;;;4473138;28;20092;-57
2022/10/03 06:11:13;;;;;;;2.47;1.60;;;;;;;;;;4491868;28;20034;-57
2022/10/03 06:13:47;;;;;;;3.30;1.60;;;;;;;;;;4467409;28;20154;-57
2022/10/03 06:16:21;;;;;;;3.47;1.73;;;;;;;;;;4475825;28;20046;-57
2022/10/03 06:18:46;;;;;;;3.55;1.73;;;;;;;;;;4490739;28;20034;-57
2022/10/03 06:21:11;;;;;;;3.00;1.63;;;;;;;;;;4491244;28;21257;-57
2022/10/03 06:23:35;;;;;;;2.85;1.70;;;;;;;;;;4491752;28;20092;-60
2022/10/03 06:25:56;;;;;;;3.47;1.67;;;;;;;;;;4491600;28;20030;-58
2022/10/03 06:28:31;;;;;;;3.83;1.83;;;;;;;;;;4492178;28;20044;-57
2022/10/03 06:31:06;;;;;;;2.58;1.70;;;;;;;;;;4492134;28;20077;-57
2022/10/03 06:33:44;;;;;;;3.80;1.70;;;;;;;;;;4490014;28;20530;-57
2022/10/03 06:36:19;;;;;;;3.15;1.90;;;;;;;;;;4490816;28;21270;-57
2022/10/03 06:39:06;;;;;;;2.35;1.50;;;;;;;;;;4477250;28;20042;-57
2022/10/03 06:41:37;;;;;;;2.90;1.67;;;;;;;;;;4492483;28;20034;-57
2022/10/03 06:44:22;;;;;;;3.42;1.70;;;;;;;;;;4468289;28;20042;-57
2022/10/03 06:46:44;;;;;;;3.67;1.73;;;;;;;;;;4491566;28;20057;-57
2022/10/03 06:49:16;;;;;;;3.58;1.88;;;;;;;;;;4460983;28;20054;-57
2022/10/03 06:52:01;;;;;;;2.90;1.83;;;;;;;;;;4491016;28;20034;-58
2022/10/03 06:54:24;;;;;;;3.20;1.90;;;;;;;;;;4491767;28;20042;-57
2022/10/03 06:56:46;;;;;;;3.85;1.80;;;;;;;;;;4482960;28;20046;-57
2022/10/03 06:59:17;;;;;;;4.85;2.20;;;;;;;;;;4491017;28;20141;-58
2022/10/03 07:01:42;;;;;;;2.90;1.63;;;;;;;;;;4492137;28;20082;-58
2022/10/03 07:04:26;;;;;;;3.08;1.73;;;;;;;;;;4476702;28;20030;-57
2022/10/03 07:06:47;;;;;;;3.08;1.90;;;;;;;;;;4490654;28;20052;-58
2022/10/03 07:09:33;;;;;;;3.95;2.10;;;;;;;;;;4490523;28;20043;-57
2022/10/03 07:12:17;;;;;;;4.53;2.15;;;;;;;;;;4467795;28;20047;-58
2022/10/03 07:14:35;;;;;;;4.18;1.98;;;;;;;;;;4482723;28;20038;-58
2022/10/03 07:17:34;;;;;;;3.72;2.00;;;;;;;;;;4490073;28;20045;-57
2022/10/03 07:20:07;;;;;;;4.75;1.90;;;;;;;;;;4440258;28;20931;-57
2022/10/03 07:22:24;;;;;;;2.80;1.80;;;;;;;;;;4490864;28;20677;-58
2022/10/03 07:24:53;;;;;;;4.05;1.92;;;;;;;;;;4490942;28;20123;-57
2022/10/03 07:27:18;;;;;;;3.28;2.00;;;;;;;;;;4490191;28;20599;-57
2022/10/03 07:29:49;;;;;;;3.25;2.15;;;;;;;;;;4490403;28;20535;-57
2022/10/03 07:32:18;;;;;;;3.60;1.95;;;;;;;;;;4491000;28;20129;-57
2022/10/03 07:34:41;;;;;;;4.38;2.00;;;;;;;;;;4477251;28;20074;-58
2022/10/03 07:39:41;;;;;;;2.80;1.70;;;;;;;;;;4460486;28;20043;-57
2022/10/03 07:42:10;;;;;;;2.95;1.80;;;;;;;;;;4491207;28;20031;-57
2022/10/03 07:44:58;;;;;;;3.45;1.85;;;;;;;;;;4491667;28;20121;-57
2022/10/03 07:47:46;;;;;;;2.20;1.67;;;;;;;;;;4489964;28;20985;-57
2022/10/03 07:50:20;;;;;;;2.70;1.70;;;;;;;;;;4491018;28;20073;-57
2022/10/03 07:52:56;;;;;;;2.10;1.65;;;;;;;;;;4489913;28;20097;-57
2022/10/03 07:55:22;;;;;;;3.10;1.90;;;;;;;;;;4474207;28;20177;-57
2022/10/03 07:57:40;;;;;;;2.85;1.80;;;;;;;;;;4472270;28;20034;-57
2022/10/03 08:00:01;;;;;;;4.05;2.10;;;;;;;;;;4490062;28;20034;-57
2022/10/03 08:02:35;;;;;;;3.13;1.83;;;;;;;;;;4475896;28;20083;-57
2022/10/03 08:05:09;;;;;;;3.05;2.03;;;;;;;;;;4491562;28;21395;-57
2022/10/03 08:07:50;;;;;;;3.08;1.75;;;;;;;;;;4490612;28;20042;-58
2022/10/03 08:10:48;;;;;;;3.80;2.00;;;;;;;;;;4491630;28;20034;-57
2022/10/03 08:13:08;;;;;;;3.75;1.90;;;;;;;;;;4489978;28;20520;-57
2022/10/03 08:15:53;;;;;;;2.90;1.90;;;;;;;;;;4489383;28;20046;-57
2022/10/03 08:18:25;;;;;;;3.42;1.73;;;;;;;;;;4487784;28;20066;-58
2022/10/03 08:20:54;;;;;;;3.78;1.90;;;;;;;;;;4482781;28;20483;-57
2022/10/03 08:23:42;;;;;;;4.70;1.77;;;;;;;;;;4480510;28;20056;-56
2022/10/03 08:25:52;;;;;;;3.38;1.70;;;;;;;;;;4492916;28;20038;-57
2022/10/03 08:28:15;;;;;;;2.42;1.63;;;;;;;;;;4494206;28;20552;-57
2022/10/03 08:31:03;;;;;;;3.63;1.55;;;;;;;;;;4494480;28;20136;-57
2022/10/03 08:33:33;;;;;;;2.92;1.60;;;;;;;;;;4494235;28;20113;-57
2022/10/03 08:36:09;;;;;;;4.13;1.80;;;;;;;;;;4481563;28;21140;-57
2022/10/03 08:38:22;;;;;;;4.25;1.88;;;;;;;;;;4493548;28;20040;-57
2022/10/03 08:40:55;;;;;;;3.53;1.80;;;;;;;;;;4493014;28;20567;-57
2022/10/03 08:43:43;;;;;;;3.42;1.58;;;;;;;;;;4493296;28;20034;-57
2022/10/03 08:45:59;;;;;;;4.18;1.88;;;;;;;;;;4492796;28;20034;-59
2022/10/03 08:48:27;;;;;;;3.33;1.77;;;;;;;;;;4493097;28;20076;-57
2022/10/03 08:50:55;;;;;;;3.08;1.60;;;;;;;;;;4475442;28;20574;-57
2022/10/03 08:53:23;;;;;;;4.05;1.73;;;;;;;;;;4478696;28;20038;-57
2022/10/03 08:55:44;;;;;;;3.58;1.77;;;;;;;;;;4492895;28;21049;-58
2022/10/03 08:57:57;;;;;;;2.80;1.80;;;;;;;;;;4493220;28;20034;-57
2022/10/03 09:00:21;;;;;;;3.47;2.03;;;;;;;;;;4493148;28;20042;-58
2022/10/03 09:02:46;;;;;;;3.63;2.00;;;;;;;;;;4475626;28;20038;-57
2022/10/03 09:05:18;;;;;;;3.95;1.90;;;;;;;;;;4491342;28;20029;-57
2022/10/03 09:07:51;;;;;;;3.42;1.80;;;;;;;;;;4478286;28;20061;-57
2022/10/03 09:10:15;;;;;;;3.15;2.03;;;;;;;;;;4493209;28;20035;-57
2022/10/03 09:12:52;;;;;;;4.82;2.00;;;;;;;;;;4492093;28;20034;-57
2022/10/03 09:15:21;;;;;;;2.45;1.63;;;;;;;;;;4484192;28;20046;-57
2022/10/03 09:17:48;;;;;;;3.17;2.00;;;;;;;;;;4492735;28;20601;-57
2022/10/03 09:20:10;;;;;;;2.95;1.60;;;;;;;;;;4493182;28;20129;-57
2022/10/03 09:22:30;;;;;;;3.03;1.80;;;;;;;;;;4480621;28;20038;-57
2022/10/03 09:25:06;;;;;;;3.53;1.80;;;;;;;;;;4478118;28;20612;-57
2022/10/03 09:27:27;;;;;;;2.92;1.45;;;;;;;;;;4492982;28;20050;-57
2022/10/03 09:29:49;;;;;;;3.03;1.83;;;;;;;;;;4475488;28;20524;-57
2022/10/03 09:32:34;;;;;;;3.55;1.80;;;;;;;;;;4492287;28;20097;-57
2022/10/03 09:35:12;;;;;;;3.00;1.70;;;;;;;;;;4485418;28;20603;-57
2022/10/03 09:37:45;;;;;;;;;;;;;;;;;;4493398;28;20738;-57
2022/10/03 09:40:38;;;;;;;2.88;1.70;;;;;;;;;;4464775;28;20478;-57
2022/10/03 09:43:11;;;;;;;2.85;1.60;;;;;;;;;;4470665;28;20097;-57
2022/10/03 09:45:45;;;;;;;3.20;1.60;;;;;;;;;;4479673;28;20618;-57
2022/10/03 09:48:01;;;;;;;2.05;1.45;;;;;;;;;;4476027;28;20597;-57
2022/10/03 09:50:30;;;;;;;3.65;1.40;;;;;;;;;;4491600;28;20114;-57
2022/10/03 09:53:04;;;;;;;3.85;1.38;;;;;;;;;;4478643;28;20129;-57
2022/10/03 09:55:44;;;;;;;2.90;1.25;;;;;;;;;;4479838;28;20137;-57
2022/10/03 09:58:30;;;;;;;3.08;1.52;;;;;;;;;;4474994;28;20126;-57
2022/10/03 10:01:13;;;;;;;2.67;1.40;;;;;;;;;;4492069;28;20042;-57
2022/10/03 10:03:40;;;;;;;2.20;1.13;;;;;;;;;;4492278;28;20153;-57
2022/10/03 10:05:56;;;;;;;2.40;1.20;;;;;;;;;;4477021;28;20080;-57
2022/10/03 10:08:07;;;;;;;;;;;;;;;;;;4493384;28;20041;-57
2022/10/03 10:10:29;;;;;;;2.85;1.20;;;;;;;;;;4491589;28;19917;-57
2022/10/03 10:13:17;;;;;;;2.28;1.35;;;;;;;;;;4491920;28;20609;-57
2022/10/03 10:16:00;;;;;;;2.20;1.10;;;;;;;;;;4491941;28;20026;-57
2022/10/03 10:18:11;;;;;;;2.88;1.25;;;;;;;;;;4492629;28;20492;-57
2022/10/03 10:20:27;;;;;;;2.28;1.08;;;;;;;;;;4492253;28;20037;-57
2022/10/03 10:23:03;;;;;;;2.50;1.10;;;;;;;;;;4491450;28;20038;-57
2022/10/03 10:25:47;;;;;;;2.00;0.90;;;;;;;;;;4491288;28;20109;-57
2022/10/03 10:27:58;;;;;;;2.97;1.27;;;;;;;;;;4483296;28;21113;-58
2022/10/03 10:30:18;;;;;;;2.20;1.20;;;;;;;;;;4491159;28;20115;-58
2022/10/03 10:33:02;;;;;;;1.85;0.80;;;;;;;;;;4491946;28;20070;-57
2022/10/03 10:35:40;;;;;;;2.28;0.90;;;;;;;;;;4474605;28;20042;-58
2022/10/03 10:38:12;;;;;;;2.78;1.10;;;;;;;;;;4491710;28;20583;-57
2022/10/03 10:40:45;;;;;;;2.08;0.93;;;;;;;;;;4491798;28;21298;-58
2022/10/03 10:43:08;;;;;;;1.80;0.90;;;;;;;;;;4493077;28;20030;-59
2022/10/03 10:45:47;;;;;;;1.50;0.70;;;;;;;;;;4492019;28;20202;-58
2022/10/03 10:48:12;;;;;;;2.33;0.70;;;;;;;;;;4490913;28;20119;-58
2022/10/03 10:51:04;;;;;;;0.70;0.57;;;;;;;;;;4491203;28;20038;-57
2022/10/03 10:53:48;;;;;;;2.05;0.73;;;;;;;;;;4491650;28;20042;-58
2022/10/03 10:56:05;;;;;;;2.65;0.73;;;;;;;;;;4467757;28;20138;-58
2022/10/03 10:58:34;;;;;;;2.25;0.65;;;;;;;;;;4476241;28;20595;-57
2022/10/03 11:01:22;;;;;;;1.30;0.68;;;;;;;;;;4491776;28;20121;-57
2022/10/03 11:04:10;;;;;;;1.83;0.50;;;;;;;;;;4490495;28;20138;-57
2022/10/03 11:06:40;;;;;;;2.30;0.68;;;;;;;;;;4491149;28;20042;-57
2022/10/03 11:09:24;;;;;;;1.77;0.63;;;;;;;;;;4491087;28;20602;-58
2022/10/03 11:11:55;;;;;;;1.92;0.50;;;;;;;;;;4478196;28;20049;-58
2022/10/03 11:14:29;;;;;;;1.77;0.63;;;;;;;;;;4466142;28;20035;-57
2022/10/03 11:16:39;;;;;;;1.77;0.43;;;;;;;;;;4491076;28;20527;-57
2022/10/03 11:19:15;;;;;;;1.88;0.63;;;;;;;;;;4491226;28;20169;-58
2022/10/03 11:21:44;;;;;;;1.00;0.40;;;;;;;;;;4491662;28;21244;-59
2022/10/03 11:24:16;;;;;;;1.27;0.40;;;;;;;;;;4476561;28;20042;-58
2022/10/03 11:27:11;;;;;;;1.92;0.50;;;;;;;;;;4491563;28;20052;-58
2022/10/03 11:29:49;;;;;;;0.68;0.40;;;;;;;;;;4477006;28;20060;-58
2022/10/03 11:32:27;;;;;;;2.03;0.52;;;;;;;;;;4482487;28;20579;-58
2022/10/03 11:35:25;;;;;;;1.23;0.50;;;;;;;;;;4479689;28;20085;-58
2022/10/03 11:38:13;;;;;;;0.95;0.40;;;;;;;;;;4490426;28;20038;-58
2022/10/03 11:40:55;;;;;;;1.90;0.50;;;;;;;;;;4469350;28;20042;-58
2022/10/03 11:43:43;;;;;;;1.05;0.40;;;;;;;;;;4468622;28;20169;-58
2022/10/03 11:46:21;;;;;;;2.25;0.50;;;;;;;;;;4489506;28;20568;-58
2022/10/03 11:48:41;;;;;;;0.90;0.30;;;;;;;;;;4488216;28;20568;-58
2022/10/03 11:50:56;;;;;;;1.83;0.60;;;;;;;;;;4476512;28;20030;-58
2022/10/03 11:53:15;;;;;;;1.65;0.43;;;;;;;;;;4479613;28;20558;-58
2022/10/03 11:55:47;;;;;;;1.27;0.45;;;;;;;;;;4476471;28;20046;-58
2022/10/03 11:58:24;;;;;;;0.90;0.50;;;;;;;;;;4472398;28;20038;-58
2022/10/03 12:00:36;;;;;;;0.63;0.40;;;;;;;;;;4463607;28;20121;-57
2022/10/03 12:03:01;;;;;;;1.33;0.43;;;;;;;;;;4479628;28;20169;-57
2022/10/03 12:05:21;;;;;;;1.67;0.50;;;;;;;;;;4494417;28;20034;-57
2022/10/03 12:10:32;;;;;;;1.50;0.40;;;;;;;;;;4493727;28;20038;-58
2022/10/03 12:12:46;;;;;;;0.95;0.40;;;;;;;;;;4479177;28;21092;-57
2022/10/03 12:15:04;;;;;;;0.88;0.30;;;;;;;;;;4485417;28;20050;-58
2022/10/03 12:17:28;;;;;;;1.90;0.50;;;;;;;;;;4476842;28;20041;-58
2022/10/03 12:19:55;;;;;;;1.60;0.52;;;;;;;;;;4482926;28;20037;-57
2022/10/03 12:22:19;;;;;;;1.40;0.30;;;;;;;;;;4478710;28;20757;-58
2022/10/03 12:24:33;;;;;;;0.65;0.30;;;;;;;;;;4482047;28;20069;-57
2022/10/03 12:26:51;;;;;;;1.00;0.40;;;;;;;;;;4475315;28;20575;-58
2022/10/03 12:29:02;;;;;;;1.20;0.40;;;;;;;;;;4491455;28;20113;-58
2022/10/03 12:31:25;;;;;;;0.85;0.40;;;;;;;;;;4474174;28;20043;-58
2022/10/03 12:33:38;;;;;;;1.17;0.40;;;;;;;;;;4492521;28;20039;-58
2022/10/03 12:36:01;;;;;;;0.65;0.32;;;;;;;;;;4476624;28;20206;-57
2022/10/03 12:38:40;;;;;;;1.08;0.40;;;;;;;;;;4477681;28;20038;-58
2022/10/03 12:41:14;;;;;;;1.50;0.40;;;;;;;;;;4494057;28;20045;-58
2022/10/03 12:43:46;;;;;;;0.50;0.35;;;;;;;;;;4475604;28;20051;-58
2022/10/03 12:46:02;;;;;;;2.65;0.60;;;;;;;;;;4481064;28;20038;-57
2022/10/03 12:48:33;;;;;;;1.15;0.45;;;;;;;;;;4480716;28;20161;-58
2022/10/03 12:50:55;;;;;;;0.50;0.30;;;;;;;;;;4493075;28;20026;-58
2022/10/03 12:53:15;;;;;;;0.60;0.40;;;;;;;;;;4480080;28;21268;-58
2022/10/03 12:55:34;;;;;;;0.55;0.30;;;;;;;;;;4493207;28;20042;-55
2022/10/03 12:57:51;;;;;;;0.88;0.38;;;;;;;;;;4481173;28;20046;-58
2022/10/03 13:00:02;;;;;;;;;;;;;;;;;;4494290;28;20736;-59
2022/10/03 13:02:29;;;;;;;1.33;0.38;;;;;;;;;;4492912;28;20014;-60
2022/10/03 13:04:46;;;;;;;0.65;0.30;;;;;;;;;;4492806;28;20073;-60
2022/10/03 13:07:30;;;;;;;1.10;0.40;;;;;;;;;;4491038;28;20587;-60
2022/10/03 13:10:05;;;;;;;0.65;0.28;;;;;;;;;;4492401;28;20262;-59
2022/10/03 13:12:16;;;;;;;1.38;0.40;;;;;;;;;;4492903;28;20579;-60
2022/10/03 13:14:42;;;;;;;1.50;0.40;;;;;;;;;;4477898;28;20554;-61
2022/10/03 13:17:23;;;;;;;0.65;0.35;;;;;;;;;;4480682;28;20038;-60
2022/10/03 13:19:58;;;;;;;1.77;0.40;;;;;;;;;;4479061;28;20183;-59
2022/10/03 13:22:35;;;;;;;1.17;0.38;;;;;;;;;;4475197;28;20074;-60
2022/10/03 13:25:00;;;;;;;0.40;0.30;;;;;;;;;;4492980;28;20162;-60
2022/10/03 13:27:27;;;;;;;1.45;0.43;;;;;;;;;;4464630;28;20047;-61
2022/10/03 13:30:16;;;;;;;0.75;0.30;;;;;;;;;;4484444;28;20088;-60
2022/10/03 13:32:36;;;;;;;1.17;0.30;;;;;;;;;;4493622;28;20038;-59
2022/10/03 13:37:57;;;;;;;1.00;0.30;;;;;;;;;;4492909;28;20488;-60
2022/10/03 13:40:14;;;;;;;0.98;0.28;;;;;;;;;;4492920;28;20035;-59
2022/10/03 13:42:38;;;;;;;0.68;0.20;;;;;;;;;;4475021;28;20054;-60
2022/10/03 13:44:55;;;;;;;0.77;0.38;;;;;;;;;;4477828;28;20047;-60
2022/10/03 13:47:24;;;;;;;0.90;0.40;;;;;;;;;;4493809;28;20088;-60
2022/10/03 13:49:50;;;;;;;1.48;0.30;;;;;;;;;;4492373;28;20056;-60
2022/10/03 13:52:09;;;;;;;1.35;0.47;;;;;;;;;;4479887;28;20054;-60
2022/10/03 13:54:38;;;;;;;0.70;0.40;;;;;;;;;;4480147;28;20022;-59
2022/10/03 13:56:51;;;;;;;0.60;0.25;;;;;;;;;;4477266;28;20133;-60
2022/10/03 13:59:11;;;;;;;1.58;0.40;;;;;;;;;;4473806;28;20779;-61
2022/10/03 14:01:47;;;;;;;0.88;0.40;;;;;;;;;;4493246;28;20656;-60
2022/10/03 14:04:06;;;;;;;1.20;0.40;;;;;;;;;;4475041;28;20030;-61
2022/10/03 14:06:28;;;;;;;1.08;0.30;;;;;;;;;;4491546;28;20440;-60
2022/10/03 14:08:50;;;;;;;1.30;0.50;;;;;;;;;;4492306;28;20546;-60
2022/10/03 14:11:13;;;;;;;0.88;0.30;;;;;;;;;;4492701;28;20042;-61
2022/10/03 14:13:30;;;;;;;0.90;0.30;;;;;;;;;;4491739;28;21326;-60
2022/10/03 14:15:46;;;;;;;;;;;;;;;;;;4493653;28;20112;-60
2022/10/03 14:18:14;;;;;;;1.02;0.30;;;;;;;;;;4492030;28;20147;-60
2022/10/03 14:20:52;;;;;;;1.38;0.40;;;;;;;;;;4477350;28;20603;-60
2022/10/03 14:23:18;;;;;;;0.88;0.50;;;;;;;;;;4490492;28;20639;-60
2022/10/03 14:26:03;;;;;;;2.15;0.60;;;;;;;;;;4490854;28;20575;-61
2022/10/03 14:28:20;;;;;;;1.48;0.40;;;;;;;;;;4419169;28;20586;-61
2022/10/03 14:30:45;;;;;;;1.25;0.40;;;;;;;;;;4492241;28;20038;-60
2022/10/03 14:33:09;;;;;;;0.82;0.38;;;;;;;;;;4471782;28;20059;-60
2022/10/03 14:35:54;;;;;;;1.25;0.52;;;;;;;;;;4473596;28;20638;-60
2022/10/03 14:38:23;;;;;;;1.13;0.40;;;;;;;;;;4490869;28;20038;-60
2022/10/03 14:41:02;;;;;;;0.75;0.32;;;;;;;;;;4492805;28;20069;-60
2022/10/03 14:43:22;;;;;;;1.30;0.32;;;;;;;;;;4479924;28;20820;-61
2022/10/03 14:45:38;;;;;;;0.57;0.30;;;;;;;;;;4491720;28;20035;-60
2022/10/03 14:47:53;;;;;;;1.25;0.43;;;;;;;;;;4476993;28;20621;-60
2022/10/03 14:50:04;;;;;;;1.25;0.40;;;;;;;;;;4476049;28;20068;-60
2022/10/03 14:52:29;;;;;;;1.73;0.50;;;;;;;;;;4490754;28;20038;-61
2022/10/03 14:54:41;;;;;;;1.30;0.40;;;;;;;;;;4481135;28;20573;-60
2022/10/03 14:56:52;;;;;;;1.33;0.50;;;;;;;;;;4474710;28;20023;-60
2022/10/03 14:59:11;;;;;;;0.85;0.40;;;;;;;;;;4492420;28;20042;-60
2022/10/03 15:01:23;;;;;;;0.43;0.30;;;;;;;;;;4483650;28;20042;-60
2022/10/03 15:03:37;;;;;;;1.63;0.40;;;;;;;;;;4492629;28;20030;-61
2022/10/03 15:05:57;;;;;;;0.80;0.40;;;;;;;;;;4476524;28;20632;-60
2022/10/03 15:08:15;;;;;;;1.15;0.60;;;;;;;;;;4489321;28;20046;-61